TimeEDT,TemperatureF,Dew PointF,Humidity,Sea Level PressureIn,VisibilityMPH,Wind Direction,Wind SpeedMPH,Gust SpeedMPH,PrecipitationIn,Events,Conditions,WindDirDegrees,DateUTC
12:15 AM,51.8,30.2,44,30.24,10.0,West,10.4,16.1,N/A,,Clear,280,2012-10-12 04:15:00
12:35 AM,51.8,30.2,44,30.24,10.0,West,10.4,18.4,N/A,,Clear,280,2012-10-12 04:35:00
12:55 AM,51.8,32.0,47,30.24,10.0,WNW,12.7,16.1,N/A,,Clear,290,2012-10-12 04:55:00
1:15 AM,51.8,32.0,47,30.24,10.0,WNW,16.1,21.9,N/A,,Clear,300,2012-10-12 05:15:00
1:35 AM,51.8,32.0,47,30.24,10.0,WNW,17.3,20.7,N/A,,Clear,290,2012-10-12 05:35:00
2:15 AM,51.8,32.0,47,30.23,10.0,WNW,18.4,27.6,N/A,,Clear,290,2012-10-12 06:15:00
2:55 AM,51.8,33.8,50,30.22,10.0,WNW,17.3,-,N/A,,Clear,300,2012-10-12 06:55:00
3:15 AM,51.8,33.8,50,30.22,10.0,WNW,17.3,26.5,N/A,,Clear,290,2012-10-12 07:15:00
3:35 AM,51.8,33.8,50,30.21,10.0,WNW,19.6,26.5,N/A,,Clear,290,2012-10-12 07:35:00
3:55 AM,50.0,33.8,54,30.21,10.0,WNW,19.6,25.3,N/A,,Clear,290,2012-10-12 07:55:00
4:15 AM,50.0,35.6,58,30.21,10.0,WNW,15.0,-,N/A,,Clear,300,2012-10-12 08:15:00
4:35 AM,50.0,35.6,58,30.21,10.0,WNW,18.4,24.2,N/A,,Clear,290,2012-10-12 08:35:00
4:55 AM,50.0,35.6,58,30.21,10.0,WNW,15.0,24.2,N/A,,Clear,300,2012-10-12 08:55:00
5:15 AM,51.8,35.6,54,30.21,10.0,WNW,12.7,21.9,N/A,,Clear,300,2012-10-12 09:15:00
5:35 AM,50.0,35.6,58,30.22,10.0,NW,8.1,-,N/A,,Clear,320,2012-10-12 09:35:00
5:55 AM,50.0,35.6,58,30.22,10.0,WNW,9.2,16.1,N/A,,Clear,290,2012-10-12 09:55:00
6:15 AM,50.0,35.6,58,30.22,10.0,WNW,13.8,18.4,N/A,,Clear,290,2012-10-12 10:15:00
6:35 AM,50.0,35.6,58,30.24,10.0,WNW,10.4,-,N/A,,Clear,300,2012-10-12 10:35:00
6:55 AM,50.0,35.6,58,30.23,10.0,WNW,11.5,-,N/A,,Clear,290,2012-10-12 10:55:00
7:15 AM,50.0,35.6,58,30.23,10.0,WNW,8.1,-,N/A,,Scattered Clouds,290,2012-10-12 11:15:00
7:35 AM,50.0,35.6,58,30.23,10.0,WNW,6.9,-,N/A,,Scattered Clouds,290,2012-10-12 11:35:00
7:55 AM,50.0,35.6,58,30.24,10.0,West,8.1,17.3,N/A,,Scattered Clouds,280,2012-10-12 11:55:00
8:15 AM,50.0,35.6,58,30.25,10.0,West,6.9,-,N/A,,Mostly Cloudy,280,2012-10-12 12:15:00
8:35 AM,51.8,35.6,54,30.26,10.0,WNW,15.0,19.6,N/A,,Overcast,300,2012-10-12 12:35:00
9:15 AM,51.8,35.6,54,30.27,10.0,WNW,5.8,10.4,N/A,,Clear,290,2012-10-12 13:15:00
9:35 AM,51.8,35.6,54,30.28,10.0,Calm,Calm,-,N/A,,Clear,0,2012-10-12 13:35:00
10:35 AM,51.8,35.6,54,30.27,10.0,Calm,Calm,-,N/A,,Scattered Clouds,0,2012-10-12 14:35:00
10:55 AM,53.6,35.6,51,30.27,10.0,West,3.5,-,N/A,,Mostly Cloudy,280,2012-10-12 14:55:00
11:15 AM,55.4,33.8,44,30.27,10.0,NNW,8.1,-,N/A,,Mostly Cloudy,330,2012-10-12 15:15:00
11:35 AM,57.2,33.8,41,30.26,10.0,NNW,9.2,-,N/A,,Scattered Clouds,340,2012-10-12 15:35:00
12:15 PM,59.0,35.6,42,30.26,10.0,NNW,8.1,-,N/A,,Mostly Cloudy,340,2012-10-12 16:15:00
1:35 PM,62.6,37.4,39,30.26,10.0,North,5.8,-,N/A,,Clear,350,2012-10-12 17:35:00
2:15 PM,62.6,39.2,42,30.26,10.0,North,12.7,18.4,N/A,,Mostly Cloudy,350,2012-10-12 18:15:00
2:35 PM,62.6,39.2,42,30.26,10.0,NNW,11.5,16.1,N/A,,Mostly Cloudy,340,2012-10-12 18:35:00
3:15 PM,60.8,39.2,45,30.27,10.0,NW,8.1,-,N/A,,Overcast,320,2012-10-12 19:15:00
3:35 PM,59.0,37.4,45,30.26,10.0,NW,8.1,-,N/A,,Overcast,320,2012-10-12 19:35:00
3:55 PM,59.0,37.4,45,30.27,10.0,NW,8.1,-,N/A,,Overcast,310,2012-10-12 19:55:00
4:15 PM,59.0,37.4,45,30.27,10.0,NNW,6.9,-,N/A,,Overcast,330,2012-10-12 20:15:00
4:35 PM,60.8,37.4,42,30.26,10.0,NW,5.8,-,N/A,,Mostly Cloudy,320,2012-10-12 20:35:00
4:55 PM,60.8,37.4,42,30.26,10.0,NW,6.9,-,N/A,,Scattered Clouds,320,2012-10-12 20:55:00
5:15 PM,60.8,37.4,42,30.27,10.0,NW,6.9,-,N/A,,Clear,320,2012-10-12 21:15:00
5:35 PM,60.8,37.4,42,30.27,10.0,NW,9.2,-,N/A,,Clear,310,2012-10-12 21:35:00
5:55 PM,59.0,37.4,45,30.29,10.0,NW,6.9,-,N/A,,Clear,310,2012-10-12 21:55:00
6:15 PM,59.0,37.4,45,30.29,10.0,NW,9.2,16.1,N/A,,Clear,320,2012-10-12 22:15:00
6:35 PM,55.4,37.4,51,30.30,10.0,NW,6.9,-,N/A,,Clear,320,2012-10-12 22:35:00
6:55 PM,55.4,37.4,51,30.30,10.0,NW,8.1,-,N/A,,Clear,310,2012-10-12 22:55:00
7:15 PM,53.6,37.4,54,30.31,10.0,NNW,4.6,-,N/A,,Clear,330,2012-10-12 23:15:00
7:35 PM,53.6,37.4,54,30.31,10.0,NW,5.8,-,N/A,,Clear,320,2012-10-12 23:35:00
7:55 PM,53.6,37.4,54,30.31,10.0,Calm,Calm,-,N/A,,Clear,0,2012-10-12 23:55:00
8:35 PM,51.8,37.4,58,30.34,10.0,NW,3.5,-,N/A,,Clear,320,2012-10-13 00:35:00
8:55 PM,51.8,37.4,58,30.34,10.0,Calm,Calm,-,N/A,,Clear,0,2012-10-13 00:55:00
9:15 PM,51.8,37.4,58,30.35,10.0,Calm,Calm,-,N/A,,Clear,0,2012-10-13 01:15:00